SPGM

Tingo Maria Airport

Tingo Maria, Peru
SPGM 251700Z 2518/2618 35008KT 9999 SCT030 BKN100 TX29/2520Z TN20/2611Z TEMPO 2612/2614 VRB03KT 5000 -RA SCT020 BKN080
Issued Valid From Valid To
Apr-25 @ 17:00 UTC
(13 hours ago)
Apr-25 @ 18:00 UTC
(12 hours ago)
Apr-26 @ 18:00 UTC
(in 12 hours)
Apr-25 @ 18:00 to Apr-26 @ 18:00
SPGM 251700Z 2518/2618 35008KT 9999 SCT030 BKN100 TX29/2520Z TN20/2611Z
Wind Visibility Clouds
350° at 8 knots 10,000+ meters
  • Scattered at 3,000' AGL
  • Broken at 10,000' AGL
Temporary Apr-26 @ 12:00 to Apr-26 @ 14:00
TEMPO 2612/2614 VRB03KT 5000 -RA SCT020 BKN080
Wind Visibility Clouds Conditions
Variable at 3 knots 5,005 meters
  • Scattered at 2,000' AGL
  • Broken at 8,000' AGL
  • Light Rain
SPGM 251700Z 2518/2618 35008KT 9999 SCT030 BKN100 TX29/2520Z TN20/2611Z TEMPO 2612/2614 VRB03KT 5000 -RA SCT020 BKN080
Issued Apr-25 @ 17:00 UTC
(13 hours ago)
Valid From Apr-25 @ 18:00 UTC
(12 hours ago)
Valid To Apr-26 @ 18:00 UTC
(in 12 hours)
Apr-25 @ 18:00 - Apr-26 @ 18:00
Wind Visibility
350° at 8 knots 10,000+ meters
Clouds
  • Scattered at 3,000' AGL
  • Broken at 10,000' AGL
Temporary Apr-26 @ 12:00 - Apr-26 @ 14:00
Wind Visibility
Variable at 3 knots 5,005 meters
Clouds
  • Scattered at 2,000' AGL
  • Broken at 8,000' AGL
Conditions
  • Light Rain